sensor_id;sensor_type;location;lat;lon;timestamp;temperature;humidity
21823;DHT22;11074;48.596;9.238;2023-04-03T00:01:37;6.90;99.90
21823;DHT22;11074;48.596;9.238;2023-04-03T00:04:04;6.80;99.90
21823;DHT22;11074;48.596;9.238;2023-04-03T00:06:31;6.80;99.90
21823;DHT22;11074;48.596;9.238;2023-04-03T00:08:57;6.80;99.90
21823;DHT22;11074;48.596;9.238;2023-04-03T00:11:23;6.70;99.90
21823;DHT22;11074;48.596;9.238;2023-04-03T00:13:49;6.70;99.90
21823;DHT22;11074;48.596;9.238;2023-04-03T00:16:15;6.60;99.90
21823;DHT22;11074;48.596;9.238;2023-04-03T00:18:41;6.60;99.90
21823;DHT22;11074;48.596;9.238;2023-04-03T00:21:09;6.70;99.90
21823;DHT22;11074;48.596;9.238;2023-04-03T00:23:37;6.60;99.90
21823;DHT22;11074;48.596;9.238;2023-04-03T00:26:03;6.60;99.90
21823;DHT22;11074;48.596;9.238;2023-04-03T00:28:28;6.70;99.90
21823;DHT22;11074;48.596;9.238;2023-04-03T00:30:54;6.70;99.90
21823;DHT22;11074;48.596;9.238;2023-04-03T00:33:20;6.70;99.90
21823;DHT22;11074;48.596;9.238;2023-04-03T00:35:47;6.60;99.90
21823;DHT22;11074;48.596;9.238;2023-04-03T00:38:14;6.50;99.90
21823;DHT22;11074;48.596;9.238;2023-04-03T00:40:44;6.50;99.90
21823;DHT22;11074;48.596;9.238;2023-04-03T00:43:15;6.60;99.90
21823;DHT22;11074;48.596;9.238;2023-04-03T00:45:45;6.50;99.90
21823;DHT22;11074;48.596;9.238;2023-04-03T00:48:20;6.50;99.90
21823;DHT22;11074;48.596;9.238;2023-04-03T00:50:50;6.50;99.90
21823;DHT22;11074;48.596;9.238;2023-04-03T00:53:31;6.40;99.90
21823;DHT22;11074;48.596;9.238;2023-04-03T00:56:00;6.40;99.90
21823;DHT22;11074;48.596;9.238;2023-04-03T00:58:37;6.30;99.90
21823;DHT22;11074;48.596;9.238;2023-04-03T01:01:12;6.30;99.90
21823;DHT22;11074;48.596;9.238;2023-04-03T01:03:41;6.30;99.90
21823;DHT22;11074;48.596;9.238;2023-04-03T01:06:07;6.30;99.90
21823;DHT22;11074;48.596;9.238;2023-04-03T01:08:33;6.30;99.90
21823;DHT22;11074;48.596;9.238;2023-04-03T01:10:59;6.40;99.90
21823;DHT22;11074;48.596;9.238;2023-04-03T01:13:28;6.30;99.90
21823;DHT22;11074;48.596;9.238;2023-04-03T01:15:55;6.40;99.90
21823;DHT22;11074;48.596;9.238;2023-04-03T01:18:22;6.30;99.90
21823;DHT22;11074;48.596;9.238;2023-04-03T01:26:23;6.20;99.90
21823;DHT22;11074;48.596;9.238;2023-04-03T01:28:49;6.20;99.90
21823;DHT22;11074;48.596;9.238;2023-04-03T01:31:47;6.10;99.90
21823;DHT22;11074;48.596;9.238;2023-04-03T01:34:20;6.20;99.90
21823;DHT22;11074;48.596;9.238;2023-04-03T01:36:46;6.10;99.90
21823;DHT22;11074;48.596;9.238;2023-04-03T01:39:12;6.20;99.90
21823;DHT22;11074;48.596;9.238;2023-04-03T01:41:38;6.10;99.90
21823;DHT22;11074;48.596;9.238;2023-04-03T01:44:04;6.20;99.90
21823;DHT22;11074;48.596;9.238;2023-04-03T01:46:30;6.30;99.90
21823;DHT22;11074;48.596;9.238;2023-04-03T01:48:56;6.20;99.90
21823;DHT22;11074;48.596;9.238;2023-04-03T01:51:22;6.10;99.90
21823;DHT22;11074;48.596;9.238;2023-04-03T01:53:48;5.90;99.90
21823;DHT22;11074;48.596;9.238;2023-04-03T01:56:14;5.80;99.90
21823;DHT22;11074;48.596;9.238;2023-04-03T01:58:40;5.80;99.90
21823;DHT22;11074;48.596;9.238;2023-04-03T02:01:06;5.90;99.90
21823;DHT22;11074;48.596;9.238;2023-04-03T02:03:32;5.90;99.90
21823;DHT22;11074;48.596;9.238;2023-04-03T02:05:58;6.00;99.90
21823;DHT22;11074;48.596;9.238;2023-04-03T02:08:23;6.00;99.90
21823;DHT22;11074;48.596;9.238;2023-04-03T02:10:50;6.00;99.90
21823;DHT22;11074;48.596;9.238;2023-04-03T02:13:16;6.00;99.90
21823;DHT22;11074;48.596;9.238;2023-04-03T02:15:43;6.00;99.90
21823;DHT22;11074;48.596;9.238;2023-04-03T02:18:09;5.90;99.90
21823;DHT22;11074;48.596;9.238;2023-04-03T02:20:35;5.80;99.90
21823;DHT22;11074;48.596;9.238;2023-04-03T02:23:01;5.90;99.90
21823;DHT22;11074;48.596;9.238;2023-04-03T02:25:27;5.90;99.90
21823;DHT22;11074;48.596;9.238;2023-04-03T02:27:53;5.90;99.90
21823;DHT22;11074;48.596;9.238;2023-04-03T02:30:18;5.90;99.90
21823;DHT22;11074;48.596;9.238;2023-04-03T02:32:44;6.00;99.90
21823;DHT22;11074;48.596;9.238;2023-04-03T02:35:11;6.00;99.90
21823;DHT22;11074;48.596;9.238;2023-04-03T02:37:37;5.90;99.90
21823;DHT22;11074;48.596;9.238;2023-04-03T02:40:03;6.00;99.90
21823;DHT22;11074;48.596;9.238;2023-04-03T02:42:30;6.10;99.90
21823;DHT22;11074;48.596;9.238;2023-04-03T02:44:56;6.10;99.90
21823;DHT22;11074;48.596;9.238;2023-04-03T02:47:22;6.10;99.90
21823;DHT22;11074;48.596;9.238;2023-04-03T02:49:47;6.20;99.90
21823;DHT22;11074;48.596;9.238;2023-04-03T02:52:14;6.10;99.90
21823;DHT22;11074;48.596;9.238;2023-04-03T02:54:40;6.20;99.90
21823;DHT22;11074;48.596;9.238;2023-04-03T02:57:06;6.20;99.90
21823;DHT22;11074;48.596;9.238;2023-04-03T02:59:37;6.20;99.90
21823;DHT22;11074;48.596;9.238;2023-04-03T03:02:07;6.30;99.90
21823;DHT22;11074;48.596;9.238;2023-04-03T03:04:34;6.30;99.90
21823;DHT22;11074;48.596;9.238;2023-04-03T03:07:00;6.20;99.90
21823;DHT22;11074;48.596;9.238;2023-04-03T03:09:26;6.20;99.90
21823;DHT22;11074;48.596;9.238;2023-04-03T03:11:51;6.20;99.90
21823;DHT22;11074;48.596;9.238;2023-04-03T03:14:18;6.10;99.90
21823;DHT22;11074;48.596;9.238;2023-04-03T03:16:43;6.10;99.90
21823;DHT22;11074;48.596;9.238;2023-04-03T03:19:09;6.10;99.90
21823;DHT22;11074;48.596;9.238;2023-04-03T03:21:35;6.10;99.90
21823;DHT22;11074;48.596;9.238;2023-04-03T03:24:01;6.10;99.90
21823;DHT22;11074;48.596;9.238;2023-04-03T03:26:27;6.10;99.90
21823;DHT22;11074;48.596;9.238;2023-04-03T03:28:53;6.10;99.90
21823;DHT22;11074;48.596;9.238;2023-04-03T03:31:18;6.20;99.90
21823;DHT22;11074;48.596;9.238;2023-04-03T03:33:44;6.30;99.90
21823;DHT22;11074;48.596;9.238;2023-04-03T03:36:10;6.20;99.90
21823;DHT22;11074;48.596;9.238;2023-04-03T03:38:36;6.20;99.90
21823;DHT22;11074;48.596;9.238;2023-04-03T03:41:02;6.30;99.90
21823;DHT22;11074;48.596;9.238;2023-04-03T03:43:28;6.30;99.90
21823;DHT22;11074;48.596;9.238;2023-04-03T03:45:54;6.30;99.90
21823;DHT22;11074;48.596;9.238;2023-04-03T03:48:21;6.30;99.90
21823;DHT22;11074;48.596;9.238;2023-04-03T03:50:48;6.20;99.90
21823;DHT22;11074;48.596;9.238;2023-04-03T03:53:14;6.20;99.90
21823;DHT22;11074;48.596;9.238;2023-04-03T03:55:40;6.20;99.90
21823;DHT22;11074;48.596;9.238;2023-04-03T03:58:06;6.20;99.90
21823;DHT22;11074;48.596;9.238;2023-04-03T04:00:32;6.20;99.90
21823;DHT22;11074;48.596;9.238;2023-04-03T04:02:58;6.10;99.90
21823;DHT22;11074;48.596;9.238;2023-04-03T04:05:24;6.10;99.90
21823;DHT22;11074;48.596;9.238;2023-04-03T04:07:50;6.00;99.90
21823;DHT22;11074;48.596;9.238;2023-04-03T04:10:16;6.00;99.90
21823;DHT22;11074;48.596;9.238;2023-04-03T04:12:42;6.10;99.90
21823;DHT22;11074;48.596;9.238;2023-04-03T04:15:08;6.10;99.90
21823;DHT22;11074;48.596;9.238;2023-04-03T04:17:34;6.10;99.90
21823;DHT22;11074;48.596;9.238;2023-04-03T04:20:01;6.20;99.90
21823;DHT22;11074;48.596;9.238;2023-04-03T04:22:28;6.20;99.90
21823;DHT22;11074;48.596;9.238;2023-04-03T04:24:53;6.00;99.90
21823;DHT22;11074;48.596;9.238;2023-04-03T04:27:19;6.00;99.90
21823;DHT22;11074;48.596;9.238;2023-04-03T04:29:45;6.00;99.90
21823;DHT22;11074;48.596;9.238;2023-04-03T04:32:11;6.10;99.90
21823;DHT22;11074;48.596;9.238;2023-04-03T04:34:36;6.10;99.90
21823;DHT22;11074;48.596;9.238;2023-04-03T04:37:02;6.10;99.90
21823;DHT22;11074;48.596;9.238;2023-04-03T04:39:28;6.10;99.90
21823;DHT22;11074;48.596;9.238;2023-04-03T04:41:53;6.10;99.90
21823;DHT22;11074;48.596;9.238;2023-04-03T04:44:19;6.10;99.90
21823;DHT22;11074;48.596;9.238;2023-04-03T04:46:45;6.10;99.90
21823;DHT22;11074;48.596;9.238;2023-04-03T04:49:11;6.10;99.90
21823;DHT22;11074;48.596;9.238;2023-04-03T04:51:37;6.10;99.90
21823;DHT22;11074;48.596;9.238;2023-04-03T04:54:02;6.10;99.90
21823;DHT22;11074;48.596;9.238;2023-04-03T04:56:28;6.10;99.90
21823;DHT22;11074;48.596;9.238;2023-04-03T04:58:53;6.10;99.90
21823;DHT22;11074;48.596;9.238;2023-04-03T05:01:19;6.10;99.90
21823;DHT22;11074;48.596;9.238;2023-04-03T05:03:45;6.10;99.90
21823;DHT22;11074;48.596;9.238;2023-04-03T05:06:11;6.10;99.90
21823;DHT22;11074;48.596;9.238;2023-04-03T05:08:37;6.00;99.90
21823;DHT22;11074;48.596;9.238;2023-04-03T05:11:02;6.00;99.90
21823;DHT22;11074;48.596;9.238;2023-04-03T05:13:28;6.00;99.90
21823;DHT22;11074;48.596;9.238;2023-04-03T05:15:54;6.00;99.90
21823;DHT22;11074;48.596;9.238;2023-04-03T05:18:19;6.00;99.90
21823;DHT22;11074;48.596;9.238;2023-04-03T05:20:47;6.10;99.90
21823;DHT22;11074;48.596;9.238;2023-04-03T05:23:14;6.10;99.90
21823;DHT22;11074;48.596;9.238;2023-04-03T05:25:40;6.10;99.90
21823;DHT22;11074;48.596;9.238;2023-04-03T05:28:06;6.10;99.90
21823;DHT22;11074;48.596;9.238;2023-04-03T05:30:32;6.00;99.90
21823;DHT22;11074;48.596;9.238;2023-04-03T05:32:58;6.00;99.90
21823;DHT22;11074;48.596;9.238;2023-04-03T05:35:24;5.90;99.90
21823;DHT22;11074;48.596;9.238;2023-04-03T05:37:50;5.90;99.90
21823;DHT22;11074;48.596;9.238;2023-04-03T05:40:16;5.90;99.90
21823;DHT22;11074;48.596;9.238;2023-04-03T05:42:41;6.00;99.90
21823;DHT22;11074;48.596;9.238;2023-04-03T05:45:07;6.10;99.90
21823;DHT22;11074;48.596;9.238;2023-04-03T05:47:33;6.20;99.90
21823;DHT22;11074;48.596;9.238;2023-04-03T05:49:59;6.30;99.90
21823;DHT22;11074;48.596;9.238;2023-04-03T05:52:28;6.20;99.90
21823;DHT22;11074;48.596;9.238;2023-04-03T05:54:57;6.20;99.90
21823;DHT22;11074;48.596;9.238;2023-04-03T05:57:23;6.20;99.90
21823;DHT22;11074;48.596;9.238;2023-04-03T05:59:49;6.20;99.90
21823;DHT22;11074;48.596;9.238;2023-04-03T06:02:20;6.30;99.90
21823;DHT22;11074;48.596;9.238;2023-04-03T06:04:47;6.30;99.90
21823;DHT22;11074;48.596;9.238;2023-04-03T06:07:16;6.30;99.90
21823;DHT22;11074;48.596;9.238;2023-04-03T06:09:43;6.20;99.90
21823;DHT22;11074;48.596;9.238;2023-04-03T06:12:09;6.20;99.90
21823;DHT22;11074;48.596;9.238;2023-04-03T06:14:36;6.20;99.90
21823;DHT22;11074;48.596;9.238;2023-04-03T06:17:03;6.20;99.90
21823;DHT22;11074;48.596;9.238;2023-04-03T06:19:29;6.30;99.90
21823;DHT22;11074;48.596;9.238;2023-04-03T06:21:55;6.20;99.90
21823;DHT22;11074;48.596;9.238;2023-04-03T06:24:21;6.20;99.90
21823;DHT22;11074;48.596;9.238;2023-04-03T06:26:49;6.20;99.90
21823;DHT22;11074;48.596;9.238;2023-04-03T06:29:17;6.30;99.90
21823;DHT22;11074;48.596;9.238;2023-04-03T06:31:43;6.30;99.90
21823;DHT22;11074;48.596;9.238;2023-04-03T06:34:10;6.30;99.90
21823;DHT22;11074;48.596;9.238;2023-04-03T06:36:37;6.20;99.90
21823;DHT22;11074;48.596;9.238;2023-04-03T06:39:03;6.30;99.90
21823;DHT22;11074;48.596;9.238;2023-04-03T06:41:28;6.30;99.90
21823;DHT22;11074;48.596;9.238;2023-04-03T06:43:54;6.40;99.90
21823;DHT22;11074;48.596;9.238;2023-04-03T06:46:22;6.30;99.90
21823;DHT22;11074;48.596;9.238;2023-04-03T06:48:49;6.40;99.90
21823;DHT22;11074;48.596;9.238;2023-04-03T06:51:23;6.40;99.90
21823;DHT22;11074;48.596;9.238;2023-04-03T06:53:52;6.50;99.90
21823;DHT22;11074;48.596;9.238;2023-04-03T06:56:19;6.40;99.90
21823;DHT22;11074;48.596;9.238;2023-04-03T06:58:46;6.40;99.90
21823;DHT22;11074;48.596;9.238;2023-04-03T07:01:17;6.40;99.90
21823;DHT22;11074;48.596;9.238;2023-04-03T07:03:44;6.50;99.90
21823;DHT22;11074;48.596;9.238;2023-04-03T07:06:13;6.40;99.90
21823;DHT22;11074;48.596;9.238;2023-04-03T07:08:40;6.40;99.90
21823;DHT22;11074;48.596;9.238;2023-04-03T07:11:06;6.50;99.90
21823;DHT22;11074;48.596;9.238;2023-04-03T07:13:32;6.50;99.90
21823;DHT22;11074;48.596;9.238;2023-04-03T07:15:58;6.60;99.90
21823;DHT22;11074;48.596;9.238;2023-04-03T07:18:24;6.60;99.90
21823;DHT22;11074;48.596;9.238;2023-04-03T07:20:50;6.60;99.90
21823;DHT22;11074;48.596;9.238;2023-04-03T07:23:16;6.60;99.90
21823;DHT22;11074;48.596;9.238;2023-04-03T07:25:44;6.60;99.90
21823;DHT22;11074;48.596;9.238;2023-04-03T07:28:11;6.70;99.90
21823;DHT22;11074;48.596;9.238;2023-04-03T07:30:48;6.80;99.90
21823;DHT22;11074;48.596;9.238;2023-04-03T07:33:17;6.70;99.90
21823;DHT22;11074;48.596;9.238;2023-04-03T07:35:44;6.70;99.90
21823;DHT22;11074;48.596;9.238;2023-04-03T07:38:11;6.90;99.90
21823;DHT22;11074;48.596;9.238;2023-04-03T07:40:37;6.90;99.90
21823;DHT22;11074;48.596;9.238;2023-04-03T07:43:04;7.00;99.90
21823;DHT22;11074;48.596;9.238;2023-04-03T07:45:31;7.00;99.90
21823;DHT22;11074;48.596;9.238;2023-04-03T07:47:57;7.10;99.90
21823;DHT22;11074;48.596;9.238;2023-04-03T07:50:23;7.20;99.90
21823;DHT22;11074;48.596;9.238;2023-04-03T07:52:49;7.30;99.90
21823;DHT22;11074;48.596;9.238;2023-04-03T07:55:16;7.30;99.90
21823;DHT22;11074;48.596;9.238;2023-04-03T07:57:42;7.30;99.90
21823;DHT22;11074;48.596;9.238;2023-04-03T08:00:08;7.30;99.90
21823;DHT22;11074;48.596;9.238;2023-04-03T08:02:35;7.40;99.90
21823;DHT22;11074;48.596;9.238;2023-04-03T08:05:00;7.60;99.90
21823;DHT22;11074;48.596;9.238;2023-04-03T08:07:26;7.70;99.90
21823;DHT22;11074;48.596;9.238;2023-04-03T08:09:52;7.60;99.90
21823;DHT22;11074;48.596;9.238;2023-04-03T08:12:18;7.60;99.90
21823;DHT22;11074;48.596;9.238;2023-04-03T08:14:44;7.60;99.90
21823;DHT22;11074;48.596;9.238;2023-04-03T08:17:09;7.80;99.90
21823;DHT22;11074;48.596;9.238;2023-04-03T08:19:38;7.60;99.90
21823;DHT22;11074;48.596;9.238;2023-04-03T08:22:05;7.70;99.90
21823;DHT22;11074;48.596;9.238;2023-04-03T08:24:33;7.80;99.90
21823;DHT22;11074;48.596;9.238;2023-04-03T08:26:59;7.90;99.90
21823;DHT22;11074;48.596;9.238;2023-04-03T08:29:26;8.00;99.90
21823;DHT22;11074;48.596;9.238;2023-04-03T08:31:52;8.10;99.90
21823;DHT22;11074;48.596;9.238;2023-04-03T08:34:18;8.20;99.90
21823;DHT22;11074;48.596;9.238;2023-04-03T08:36:45;8.20;99.90
21823;DHT22;11074;48.596;9.238;2023-04-03T08:39:11;8.20;99.90
21823;DHT22;11074;48.596;9.238;2023-04-03T08:41:39;8.10;99.90
21823;DHT22;11074;48.596;9.238;2023-04-03T08:49:49;8.20;99.90
21823;DHT22;11074;48.596;9.238;2023-04-03T08:52:52;8.40;99.90
21823;DHT22;11074;48.596;9.238;2023-04-03T08:55:43;8.50;99.90
21823;DHT22;11074;48.596;9.238;2023-04-03T08:58:29;8.40;99.90
21823;DHT22;11074;48.596;9.238;2023-04-03T09:01:10;8.40;99.90
21823;DHT22;11074;48.596;9.238;2023-04-03T09:03:44;8.40;99.90
21823;DHT22;11074;48.596;9.238;2023-04-03T09:15:09;8.40;99.90
21823;DHT22;11074;48.596;9.238;2023-04-03T09:20:29;8.50;99.90
21823;DHT22;11074;48.596;9.238;2023-04-03T09:26:11;8.60;99.90
21823;DHT22;11074;48.596;9.238;2023-04-03T09:28:42;8.60;99.90
21823;DHT22;11074;48.596;9.238;2023-04-03T09:31:20;8.60;99.90
21823;DHT22;11074;48.596;9.238;2023-04-03T09:33:50;8.70;99.90
21823;DHT22;11074;48.596;9.238;2023-04-03T09:36:44;8.80;99.90
21823;DHT22;11074;48.596;9.238;2023-04-03T09:39:16;8.90;99.90
21823;DHT22;11074;48.596;9.238;2023-04-03T09:42:01;8.90;99.90
21823;DHT22;11074;48.596;9.238;2023-04-03T09:44:31;8.80;99.90
21823;DHT22;11074;48.596;9.238;2023-04-03T09:46:59;8.80;99.90
21823;DHT22;11074;48.596;9.238;2023-04-03T09:49:42;8.80;99.90
21823;DHT22;11074;48.596;9.238;2023-04-03T09:52:26;8.80;99.90
21823;DHT22;11074;48.596;9.238;2023-04-03T09:54:52;8.80;99.90
21823;DHT22;11074;48.596;9.238;2023-04-03T09:57:17;8.70;99.90
21823;DHT22;11074;48.596;9.238;2023-04-03T09:59:58;8.70;99.90
21823;DHT22;11074;48.596;9.238;2023-04-03T10:02:39;8.60;99.90
21823;DHT22;11074;48.596;9.238;2023-04-03T10:05:37;8.60;99.90
21823;DHT22;11074;48.596;9.238;2023-04-03T10:10:46;8.50;99.90
21823;DHT22;11074;48.596;9.238;2023-04-03T10:13:19;8.60;99.90
21823;DHT22;11074;48.596;9.238;2023-04-03T10:15:59;8.70;99.90
21823;DHT22;11074;48.596;9.238;2023-04-03T10:21:33;8.80;99.90
21823;DHT22;11074;48.596;9.238;2023-04-03T10:27:08;8.70;99.90
21823;DHT22;11074;48.596;9.238;2023-04-03T10:33:18;8.90;99.90
21823;DHT22;11074;48.596;9.238;2023-04-03T10:36:12;9.00;99.90
21823;DHT22;11074;48.596;9.238;2023-04-03T10:42:17;9.00;99.90
21823;DHT22;11074;48.596;9.238;2023-04-03T10:56:49;9.10;99.90
21823;DHT22;11074;48.596;9.238;2023-04-03T10:59:29;9.10;99.90
21823;DHT22;11074;48.596;9.238;2023-04-03T11:05:40;9.10;99.90
21823;DHT22;11074;48.596;9.238;2023-04-03T11:08:42;9.10;99.90
21823;DHT22;11074;48.596;9.238;2023-04-03T11:11:24;9.00;99.90
21823;DHT22;11074;48.596;9.238;2023-04-03T11:14:01;9.00;99.90
21823;DHT22;11074;48.596;9.238;2023-04-03T11:16:35;9.10;99.90
21823;DHT22;11074;48.596;9.238;2023-04-03T11:19:21;9.00;99.90
21823;DHT22;11074;48.596;9.238;2023-04-03T11:30:30;8.90;99.90
21823;DHT22;11074;48.596;9.238;2023-04-03T11:39:33;9.20;99.90
21823;DHT22;11074;48.596;9.238;2023-04-03T11:42:34;9.10;99.90
21823;DHT22;11074;48.596;9.238;2023-04-03T11:47:51;9.40;99.90
21823;DHT22;11074;48.596;9.238;2023-04-03T12:00:49;9.10;99.90
21823;DHT22;11074;48.596;9.238;2023-04-03T12:13:38;9.40;99.90
21823;DHT22;11074;48.596;9.238;2023-04-03T12:16:26;9.50;99.90
21823;DHT22;11074;48.596;9.238;2023-04-03T12:24:32;9.80;99.90
21823;DHT22;11074;48.596;9.238;2023-04-03T12:29:52;9.80;99.90
21823;DHT22;11074;48.596;9.238;2023-04-03T12:32:48;9.80;99.90
21823;DHT22;11074;48.596;9.238;2023-04-03T12:35:36;9.80;99.90
21823;DHT22;11074;48.596;9.238;2023-04-03T12:44:44;9.80;99.90
21823;DHT22;11074;48.596;9.238;2023-04-03T12:47:31;9.80;99.90
21823;DHT22;11074;48.596;9.238;2023-04-03T12:50:13;9.90;99.90
21823;DHT22;11074;48.596;9.238;2023-04-03T12:52:49;9.80;99.90
21823;DHT22;11074;48.596;9.238;2023-04-03T12:55:20;9.90;99.90
21823;DHT22;11074;48.596;9.238;2023-04-03T12:57:47;9.70;99.90
21823;DHT22;11074;48.596;9.238;2023-04-03T13:02:59;9.50;99.90
21823;DHT22;11074;48.596;9.238;2023-04-03T13:05:27;9.50;99.90
21823;DHT22;11074;48.596;9.238;2023-04-03T13:08:03;9.40;99.90
21823;DHT22;11074;48.596;9.238;2023-04-03T13:10:31;9.30;99.90
21823;DHT22;11074;48.596;9.238;2023-04-03T13:13:09;9.40;99.90
21823;DHT22;11074;48.596;9.238;2023-04-03T13:15:47;9.50;99.90
21823;DHT22;11074;48.596;9.238;2023-04-03T13:18:27;9.60;99.90
21823;DHT22;11074;48.596;9.238;2023-04-03T13:21:03;9.80;99.90
21823;DHT22;11074;48.596;9.238;2023-04-03T13:23:35;9.80;99.90
21823;DHT22;11074;48.596;9.238;2023-04-03T13:26:04;9.80;99.90
21823;DHT22;11074;48.596;9.238;2023-04-03T13:28:33;9.80;99.90
21823;DHT22;11074;48.596;9.238;2023-04-03T13:31:32;9.80;99.90
21823;DHT22;11074;48.596;9.238;2023-04-03T13:34:05;9.80;99.90
21823;DHT22;11074;48.596;9.238;2023-04-03T13:36:39;9.70;99.90
21823;DHT22;11074;48.596;9.238;2023-04-03T13:41:41;9.50;99.90
21823;DHT22;11074;48.596;9.238;2023-04-03T13:46:48;9.30;99.90
21823;DHT22;11074;48.596;9.238;2023-04-03T13:49:27;9.30;99.90
21823;DHT22;11074;48.596;9.238;2023-04-03T13:51:53;9.30;99.90
21823;DHT22;11074;48.596;9.238;2023-04-03T13:54:33;9.30;99.90
21823;DHT22;11074;48.596;9.238;2023-04-03T13:57:01;9.50;99.90
21823;DHT22;11074;48.596;9.238;2023-04-03T13:59:34;9.70;99.90
21823;DHT22;11074;48.596;9.238;2023-04-03T14:04:52;9.80;99.90
21823;DHT22;11074;48.596;9.238;2023-04-03T14:07:23;9.90;99.90
21823;DHT22;11074;48.596;9.238;2023-04-03T14:09:51;9.90;99.90
21823;DHT22;11074;48.596;9.238;2023-04-03T14:12:19;9.90;99.90
21823;DHT22;11074;48.596;9.238;2023-04-03T14:14:52;9.80;99.90
21823;DHT22;11074;48.596;9.238;2023-04-03T14:17:21;9.80;99.90
21823;DHT22;11074;48.596;9.238;2023-04-03T14:19:50;9.80;99.90
21823;DHT22;11074;48.596;9.238;2023-04-03T14:22:21;9.90;99.90
21823;DHT22;11074;48.596;9.238;2023-04-03T14:24:51;10.00;99.90
21823;DHT22;11074;48.596;9.238;2023-04-03T14:27:22;10.10;99.90
21823;DHT22;11074;48.596;9.238;2023-04-03T14:30:14;10.10;99.90
21823;DHT22;11074;48.596;9.238;2023-04-03T14:32:43;10.00;99.90
21823;DHT22;11074;48.596;9.238;2023-04-03T14:35:10;10.00;99.90
21823;DHT22;11074;48.596;9.238;2023-04-03T14:37:36;9.80;99.90
21823;DHT22;11074;48.596;9.238;2023-04-03T14:40:04;9.70;99.90
21823;DHT22;11074;48.596;9.238;2023-04-03T14:42:33;9.50;99.90
21823;DHT22;11074;48.596;9.238;2023-04-03T14:45:03;9.40;99.90
21823;DHT22;11074;48.596;9.238;2023-04-03T14:47:31;9.30;99.90
21823;DHT22;11074;48.596;9.238;2023-04-03T14:49:59;9.20;99.90
21823;DHT22;11074;48.596;9.238;2023-04-03T14:52:32;9.20;99.90
21823;DHT22;11074;48.596;9.238;2023-04-03T14:55:00;9.20;99.90
21823;DHT22;11074;48.596;9.238;2023-04-03T14:57:28;9.30;99.90
21823;DHT22;11074;48.596;9.238;2023-04-03T14:59:55;9.40;99.90
21823;DHT22;11074;48.596;9.238;2023-04-03T15:05:02;9.60;99.90
21823;DHT22;11074;48.596;9.238;2023-04-03T15:07:34;9.60;99.90
21823;DHT22;11074;48.596;9.238;2023-04-03T15:10:13;9.70;99.90
21823;DHT22;11074;48.596;9.238;2023-04-03T15:12:42;9.90;99.90
21823;DHT22;11074;48.596;9.238;2023-04-03T15:15:08;9.90;99.90
21823;DHT22;11074;48.596;9.238;2023-04-03T15:17:36;9.60;99.90
21823;DHT22;11074;48.596;9.238;2023-04-03T15:20:03;9.50;99.90
21823;DHT22;11074;48.596;9.238;2023-04-03T15:22:36;9.30;99.90
21823;DHT22;11074;48.596;9.238;2023-04-03T15:25:02;9.20;99.90
21823;DHT22;11074;48.596;9.238;2023-04-03T15:27:28;9.10;99.90
21823;DHT22;11074;48.596;9.238;2023-04-03T15:29:54;9.10;99.90
21823;DHT22;11074;48.596;9.238;2023-04-03T15:32:19;9.10;99.90
21823;DHT22;11074;48.596;9.238;2023-04-03T15:34:45;9.00;99.90
21823;DHT22;11074;48.596;9.238;2023-04-03T15:37:11;9.10;99.90
21823;DHT22;11074;48.596;9.238;2023-04-03T15:39:36;9.10;99.90
21823;DHT22;11074;48.596;9.238;2023-04-03T15:42:02;9.20;99.90
21823;DHT22;11074;48.596;9.238;2023-04-03T15:44:32;9.20;99.90
21823;DHT22;11074;48.596;9.238;2023-04-03T15:47:00;9.30;99.90
21823;DHT22;11074;48.596;9.238;2023-04-03T15:49:27;9.40;99.90
21823;DHT22;11074;48.596;9.238;2023-04-03T15:51:52;9.50;99.90
21823;DHT22;11074;48.596;9.238;2023-04-03T15:54:18;9.50;99.90
21823;DHT22;11074;48.596;9.238;2023-04-03T15:56:44;9.60;99.90
21823;DHT22;11074;48.596;9.238;2023-04-03T15:59:11;9.80;99.90
21823;DHT22;11074;48.596;9.238;2023-04-03T16:01:38;10.80;99.90
21823;DHT22;11074;48.596;9.238;2023-04-03T16:04:06;10.70;99.90
21823;DHT22;11074;48.596;9.238;2023-04-03T16:06:33;10.50;99.90
21823;DHT22;11074;48.596;9.238;2023-04-03T16:08:59;11.30;99.90
21823;DHT22;11074;48.596;9.238;2023-04-03T16:11:26;13.50;99.90
21823;DHT22;11074;48.596;9.238;2023-04-03T16:13:53;14.40;99.90
21823;DHT22;11074;48.596;9.238;2023-04-03T16:16:19;14.40;99.90
21823;DHT22;11074;48.596;9.238;2023-04-03T16:18:45;13.00;99.90
21823;DHT22;11074;48.596;9.238;2023-04-03T16:21:13;11.90;99.90
21823;DHT22;11074;48.596;9.238;2023-04-03T16:23:41;11.00;99.90
21823;DHT22;11074;48.596;9.238;2023-04-03T16:26:07;10.40;99.90
21823;DHT22;11074;48.596;9.238;2023-04-03T16:28:33;9.90;99.90
21823;DHT22;11074;48.596;9.238;2023-04-03T16:31:00;9.50;99.90
21823;DHT22;11074;48.596;9.238;2023-04-03T16:33:27;9.30;99.90
21823;DHT22;11074;48.596;9.238;2023-04-03T16:35:53;9.30;99.90
21823;DHT22;11074;48.596;9.238;2023-04-03T16:38:19;9.20;99.90
21823;DHT22;11074;48.596;9.238;2023-04-03T16:40:45;9.20;99.90
21823;DHT22;11074;48.596;9.238;2023-04-03T16:43:11;9.10;99.90
21823;DHT22;11074;48.596;9.238;2023-04-03T16:45:37;9.10;99.90
21823;DHT22;11074;48.596;9.238;2023-04-03T16:48:03;9.10;99.90
21823;DHT22;11074;48.596;9.238;2023-04-03T16:50:29;9.10;99.90
21823;DHT22;11074;48.596;9.238;2023-04-03T16:52:54;9.10;99.90
21823;DHT22;11074;48.596;9.238;2023-04-03T16:55:20;9.10;99.90
21823;DHT22;11074;48.596;9.238;2023-04-03T16:57:46;9.10;99.90
21823;DHT22;11074;48.596;9.238;2023-04-03T17:00:12;9.20;99.90
21823;DHT22;11074;48.596;9.238;2023-04-03T17:02:39;9.10;99.90
21823;DHT22;11074;48.596;9.238;2023-04-03T17:05:06;9.20;99.90
21823;DHT22;11074;48.596;9.238;2023-04-03T17:07:33;9.10;99.90
21823;DHT22;11074;48.596;9.238;2023-04-03T17:09:59;9.00;99.90
21823;DHT22;11074;48.596;9.238;2023-04-03T17:12:25;8.80;99.90
21823;DHT22;11074;48.596;9.238;2023-04-03T17:14:50;8.70;99.90
21823;DHT22;11074;48.596;9.238;2023-04-03T17:17:21;8.70;99.90
21823;DHT22;11074;48.596;9.238;2023-04-03T17:19:48;8.50;99.90
21823;DHT22;11074;48.596;9.238;2023-04-03T17:22:14;8.50;99.90
21823;DHT22;11074;48.596;9.238;2023-04-03T17:24:41;8.40;99.90
21823;DHT22;11074;48.596;9.238;2023-04-03T17:27:07;8.40;99.90
21823;DHT22;11074;48.596;9.238;2023-04-03T17:29:33;8.30;99.90
21823;DHT22;11074;48.596;9.238;2023-04-03T17:31:58;8.30;99.90
21823;DHT22;11074;48.596;9.238;2023-04-03T17:34:24;8.30;99.90
21823;DHT22;11074;48.596;9.238;2023-04-03T17:36:50;8.20;99.90
21823;DHT22;11074;48.596;9.238;2023-04-03T17:39:16;8.10;99.90
21823;DHT22;11074;48.596;9.238;2023-04-03T17:41:42;8.00;99.90
21823;DHT22;11074;48.596;9.238;2023-04-03T17:44:10;8.00;99.90
21823;DHT22;11074;48.596;9.238;2023-04-03T17:46:36;7.90;99.90
21823;DHT22;11074;48.596;9.238;2023-04-03T17:49:02;7.90;99.90
21823;DHT22;11074;48.596;9.238;2023-04-03T17:51:29;7.80;99.90
21823;DHT22;11074;48.596;9.238;2023-04-03T17:53:56;7.80;99.90
21823;DHT22;11074;48.596;9.238;2023-04-03T17:56:24;7.80;99.90
21823;DHT22;11074;48.596;9.238;2023-04-03T17:58:54;7.80;99.90
21823;DHT22;11074;48.596;9.238;2023-04-03T18:01:33;7.80;99.90